Time;durP1;ratioP1;P1;durP2;ratioP2;P2;SDS_P1;SDS_P2;PMS_P1;PMS_P2;Temp;Humidity;BMP_temperature;BMP_pressure;BME280_temperature;BME280_humidity;BME280_pressure;Samples;Min_cycle;Max_cycle;Signal;HPM_P1;HPM_P2
2023/02/06 00:02:27;;;;;;;;;;;;;;;25.93;40.26;95783.91;5007102;28;9022;-65
2023/02/06 00:04:58;;;;;;;;;;;;;;;25.97;39.68;95786.44;5008868;28;7043;-65
2023/02/06 00:07:56;;;;;;;;;;;;;;;25.96;40.33;95780.19;5004966;28;9321;-65
2023/02/06 00:10:25;;;;;;;;;;;;;;;25.97;40.03;95795.47;5003987;28;9719;-65
2023/02/06 00:13:01;;;;;;;;;;;;;;;25.99;40.30;95797.78;5004669;28;7129;-65
2023/02/06 00:15:36;;;;;;;;;;;;;;;25.98;39.50;95801.75;5025843;28;8965;-65
2023/02/06 00:18:12;;;;;;;;;;;;;;;25.97;39.89;95795.47;5007734;28;7223;-65
2023/02/06 00:20:46;;;;;;;;;;;;;;;25.98;39.63;95799.75;5010153;28;7166;-65
2023/02/06 00:23:12;;;;;;;;;;;;;;;25.99;40.20;95804.03;5006061;28;7642;-65
2023/02/06 00:25:38;;;;;;;;;;;;;;;25.99;40.21;95798.50;5007213;28;9055;-65
2023/02/06 00:28:04;;;;;;;;;;;;;;;25.99;40.06;95804.03;5011618;28;7167;-64
2023/02/06 00:30:30;;;;;;;;;;;;;;;25.96;39.97;95799.50;5003640;28;9007;-64
2023/02/06 00:32:56;;;;;;;;;;;;;;;25.97;40.07;95800.22;5008052;28;9033;-64
2023/02/06 00:35:22;;;;;;;;;;;;;;;25.98;39.64;95805.28;5003789;28;7171;-64
2023/02/06 00:37:52;;;;;;;;;;;;;;;25.99;39.44;95797.78;5009138;28;7213;-64
2023/02/06 00:40:21;;;;;;;;;;;;;;;25.99;39.54;95801.28;5009902;28;7376;-64
2023/02/06 00:42:48;;;;;;;;;;;;;;;25.99;39.38;95803.28;5009846;28;9128;-64
2023/02/06 00:45:14;;;;;;;;;;;;;;;25.99;39.82;95806.03;5021824;28;7095;-65
2023/02/06 00:47:41;;;;;;;;;;;;;;;25.98;39.79;95802.53;5022332;28;7236;-65
2023/02/06 00:50:11;;;;;;;;;;;;;;;25.98;40.05;95801.75;5006247;28;7257;-64
2023/02/06 00:52:37;;;;;;;;;;;;;;;25.98;40.29;95810.78;5008824;28;9046;-65
2023/02/06 00:55:08;;;;;;;;;;;;;;;25.99;40.14;95814.31;5008129;28;8248;-65
2023/02/06 00:57:34;;;;;;;;;;;;;;;25.96;39.43;95805.00;5009461;28;8953;-65
2023/02/06 01:00:07;;;;;;;;;;;;;;;25.94;39.55;95796.44;5025062;28;7271;-65
2023/02/06 01:02:39;;;;;;;;;;;;;;;25.94;40.09;95803.97;5012744;28;8997;-65
2023/02/06 01:05:21;;;;;;;;;;;;;;;25.97;39.84;95794.72;4995963;28;7015;-64
2023/02/06 01:07:55;;;;;;;;;;;;;;;25.97;40.06;95801.00;5006247;28;8704;-65
2023/02/06 01:10:21;;;;;;;;;;;;;;;25.96;40.05;95796.72;5019450;28;7509;-65
2023/02/06 01:13:00;;;;;;;;;;;;;;;25.96;39.99;95793.97;5028402;28;9260;-65
2023/02/06 01:15:36;;;;;;;;;;;;;;;25.96;39.46;95801.47;5009520;28;9120;-65
2023/02/06 01:18:05;;;;;;;;;;;;;;;25.96;39.30;95801.47;5024293;28;7602;-65
2023/02/06 01:20:50;;;;;;;;;;;;;;;25.97;39.63;95801.00;5012188;28;8966;-64
2023/02/06 01:23:16;;;;;;;;;;;;;;;25.97;39.61;95795.47;4995801;28;7266;-65
2023/02/06 01:26:18;;;;;;;;;;;;;;;25.97;39.41;95802.97;5012762;28;7235;-65
2023/02/06 01:28:46;;;;;;;;;;;;;;;25.95;39.30;95797.97;4930028;28;7535;-65
2023/02/06 01:31:30;;;;;;;;;;;;;;;25.95;39.43;95795.19;4945213;28;9204;-65
2023/02/06 01:33:59;;;;;;;;;;;;;;;25.95;39.83;95795.19;4952878;28;9358;-65
2023/02/06 01:36:50;;;;;;;;;;;;;;;25.97;39.38;95805.75;4932093;28;7045;-64
2023/02/06 01:39:16;;;;;;;;;;;;;;;25.96;39.30;95802.25;4951270;28;8950;-65
2023/02/06 01:41:49;;;;;;;;;;;;;;;25.95;39.74;95802.69;4936454;28;9020;-64
2023/02/06 01:44:25;;;;;;;;;;;;;;;25.95;39.94;95802.69;4938800;28;7267;-65
2023/02/06 01:47:21;;;;;;;;;;;;;;;25.95;40.28;95803.47;4932243;28;6860;-65
2023/02/06 01:49:49;;;;;;;;;;;;;;;25.95;39.61;95808.97;4891197;29;9024;-65
2023/02/06 01:52:29;;;;;;;;;;;;;;;25.95;40.00;95803.47;4893279;29;9062;-65
2023/02/06 01:55:05;;;;;;;;;;;;;;;25.95;39.49;95792.44;4897687;29;7318;-65
2023/02/06 01:57:51;;;;;;;;;;;;;;;25.95;39.28;95797.97;4879573;29;9464;-65
2023/02/06 02:00:18;;;;;;;;;;;;;;;25.95;39.57;95797.97;4894059;29;7284;-65
2023/02/06 02:02:53;;;;;;;;;;;;;;;25.95;39.91;95786.94;4897217;29;9060;-65
2023/02/06 02:05:19;;;;;;;;;;;;;;;25.94;39.59;95785.44;4935807;28;9010;-65
2023/02/06 02:08:02;;;;;;;;;;;;;;;25.94;40.00;95784.66;4949565;28;7069;-65
2023/02/06 02:10:30;;;;;;;;;;;;;;;25.94;39.36;95781.91;4952826;28;7264;-65
2023/02/06 02:12:56;;;;;;;;;;;;;;;25.93;39.43;95778.38;4946117;28;9185;-64
2023/02/06 02:15:54;;;;;;;;;;;;;;;25.93;39.47;95770.13;4938914;28;9270;-65
2023/02/06 02:18:47;;;;;;;;;;;;;;;25.92;39.58;95768.59;4942441;28;9100;-64
2023/02/06 02:21:59;;;;;;;;;;;;;;;25.92;39.83;95763.09;4952302;28;9204;-64
2023/02/06 02:25:04;;;;;;;;;;;;;;;25.91;39.56;95763.56;4945463;28;9308;-64
2023/02/06 02:27:50;;;;;;;;;;;;;;;25.93;39.66;95759.09;5004414;28;9299;-64
2023/02/06 02:30:54;;;;;;;;;;;;;;;25.93;40.20;95756.31;5007668;28;7234;-64
2023/02/06 02:33:38;;;;;;;;;;;;;;;25.93;39.37;95750.81;5007171;28;7269;-65
2023/02/06 02:36:21;;;;;;;;;;;;;;;25.93;40.07;95748.06;5005649;28;9066;-64
2023/02/06 02:39:20;;;;;;;;;;;;;;;25.92;40.14;95743.81;5008746;28;9165;-64
2023/02/06 02:41:55;;;;;;;;;;;;;;;25.91;39.32;95747.78;5005486;28;7443;-64
2023/02/06 02:45:03;;;;;;;;;;;;;;;25.92;39.15;95748.53;5016940;28;7064;-64
2023/02/06 02:47:40;;;;;;;;;;;;;;;25.92;39.25;95749.31;4969939;28;9407;-64
2023/02/06 02:50:08;;;;;;;;;;;;;;;25.92;39.57;95754.06;4967909;28;7597;-64
2023/02/06 02:52:52;;;;;;;;;;;;;;;25.92;39.52;95746.56;4970486;28;7035;-64
2023/02/06 02:55:25;;;;;;;;;;;;;;;25.87;39.60;95735.44;4964387;28;8823;-64
2023/02/06 02:57:58;;;;;;;;;;;;;;;25.91;39.99;95739.50;4968108;28;8410;-64
2023/02/06 03:00:25;;;;;;;;;;;;;;;25.90;39.12;95737.97;4967754;28;7271;-65
2023/02/06 03:03:03;;;;;;;;;;;;;;;25.90;39.31;95740.00;4952928;28;7335;-64
2023/02/06 03:05:37;;;;;;;;;;;;;;;25.93;39.27;95741.78;4951077;28;9140;-64
2023/02/06 03:08:20;;;;;;;;;;;;;;;25.95;39.34;95733.78;4966956;28;7274;-64
2023/02/06 03:11:00;;;;;;;;;;;;;;;25.94;39.95;95735.81;4961367;28;8993;-65
2023/02/06 03:13:52;;;;;;;;;;;;;;;25.96;40.00;95743.59;4967957;28;9214;-64
2023/02/06 03:16:35;;;;;;;;;;;;;;;25.96;39.27;95738.06;4963606;28;8259;-65
2023/02/06 03:19:10;;;;;;;;;;;;;;;25.95;39.31;95747.56;4955237;28;9461;-64
2023/02/06 03:21:40;;;;;;;;;;;;;;;25.97;39.53;95756.13;4947877;28;7281;-64
2023/02/06 03:24:17;;;;;;;;;;;;;;;25.95;39.66;95750.31;4999085;28;8870;-64
2023/02/06 03:26:48;;;;;;;;;;;;;;;25.92;39.71;95746.56;5006342;28;9097;-64
2023/02/06 03:29:20;;;;;;;;;;;;;;;25.91;39.62;95756.06;5004449;28;9110;-64
2023/02/06 03:31:55;;;;;;;;;;;;;;;25.91;39.09;95753.28;5006830;28;7279;-64
2023/02/06 03:34:42;;;;;;;;;;;;;;;25.90;39.28;95746.25;5005070;28;9452;-64
2023/02/06 03:37:12;;;;;;;;;;;;;;;25.88;39.74;95754.25;5004823;28;7227;-64
2023/02/06 03:39:39;;;;;;;;;;;;;;;25.92;39.45;95759.56;5000045;28;9192;-64
2023/02/06 03:42:12;;;;;;;;;;;;;;;25.94;39.99;95763.38;5007304;28;7042;-64
2023/02/06 03:44:47;;;;;;;;;;;;;;;25.95;39.12;95759.34;5006882;28;7065;-64
2023/02/06 03:47:21;;;;;;;;;;;;;;;25.96;39.63;95754.63;5016845;28;9803;-64
2023/02/06 03:50:08;;;;;;;;;;;;;;;25.90;39.93;95756.53;5008169;28;9190;-64
2023/02/06 03:52:48;;;;;;;;;;;;;;;25.87;39.78;95758.25;5009823;28;9469;-64
2023/02/06 03:55:28;;;;;;;;;;;;;;;25.87;39.58;95763.75;5025053;28;8501;-64
2023/02/06 03:58:08;;;;;;;;;;;;;;;25.87;39.90;95760.25;5026956;28;8817;-64
2023/02/06 04:00:46;;;;;;;;;;;;;;;25.86;39.07;95753.97;5016604;28;9016;-64
2023/02/06 04:03:14;;;;;;;;;;;;;;;25.93;39.58;95753.56;5008269;28;7291;-64
2023/02/06 04:05:47;;;;;;;;;;;;;;;25.89;39.42;95755.78;5023230;28;8730;-64
2023/02/06 04:08:19;;;;;;;;;;;;;;;25.93;39.68;95758.31;5010185;28;8724;-64
2023/02/06 04:10:55;;;;;;;;;;;;;;;25.94;39.15;95749.59;5013488;28;8953;-64
2023/02/06 04:13:22;;;;;;;;;;;;;;;25.95;39.42;95748.34;5019688;28;7284;-64
2023/02/06 04:15:49;;;;;;;;;;;;;;;25.92;39.61;95756.81;5011451;28;7096;-64
2023/02/06 04:18:17;;;;;;;;;;;;;;;25.94;39.05;95768.88;5008460;28;9048;-64
2023/02/06 04:20:43;;;;;;;;;;;;;;;25.91;39.05;95763.56;5011311;28;7256;-64
2023/02/06 04:23:09;;;;;;;;;;;;;;;25.88;39.99;95759.03;5004141;28;7728;-64
2023/02/06 04:25:35;;;;;;;;;;;;;;;25.84;39.76;95761.97;5011695;28;7071;-64
2023/02/06 04:28:03;;;;;;;;;;;;;;;25.86;39.56;95770.50;5020144;28;7200;-64
2023/02/06 04:30:29;;;;;;;;;;;;;;;25.87;39.15;95765.75;5019150;28;7434;-64
2023/02/06 04:33:03;;;;;;;;;;;;;;;25.83;39.82;95763.22;5020971;28;7032;-64
2023/02/06 04:35:33;;;;;;;;;;;;;;;25.84;39.13;95761.97;5012133;28;8324;-65
2023/02/06 04:38:01;;;;;;;;;;;;;;;25.85;39.34;95760.72;5009292;28;7143;-64
2023/02/06 04:40:27;;;;;;;;;;;;;;;25.86;39.99;95758.75;5015768;28;7261;-65
2023/02/06 04:42:54;;;;;;;;;;;;;;;25.83;39.33;95757.69;5009913;28;7216;-64
2023/02/06 04:45:20;;;;;;;;;;;;;;;25.86;39.68;95770.50;5024657;28;7093;-64
2023/02/06 04:47:49;;;;;;;;;;;;;;;25.86;39.92;95762.25;5015233;28;7249;-64
2023/02/06 04:50:19;;;;;;;;;;;;;;;25.88;39.34;95775.56;5008507;28;9443;-64
2023/02/06 04:52:45;;;;;;;;;;;;;;;25.88;39.16;95770.78;5007508;28;7435;-64
2023/02/06 04:55:37;;;;;;;;;;;;;;;25.88;39.15;95770.78;5009386;28;9061;-64
2023/02/06 04:58:05;;;;;;;;;;;;;;;25.86;40.04;95765.00;5001116;28;6867;-64
2023/02/06 05:00:37;;;;;;;;;;;;;;;25.87;39.86;95763.00;5008076;28;9053;-64
2023/02/06 05:03:17;;;;;;;;;;;;;;;25.86;39.78;95765.00;5008619;28;7132;-64
2023/02/06 05:05:43;;;;;;;;;;;;;;;25.86;39.18;95762.25;5010557;28;9102;-64
2023/02/06 05:08:09;;;;;;;;;;;;;;;25.87;39.91;95746.47;5003188;28;9089;-64
2023/02/06 05:11:05;;;;;;;;;;;;;;;25.88;39.71;95761.78;5011753;28;9067;-64
2023/02/06 05:13:42;;;;;;;;;;;;;;;25.87;39.75;95746.47;5008877;28;9120;-63
2023/02/06 05:16:25;;;;;;;;;;;;;;;25.86;39.60;95750.47;5008789;28;9373;-64
2023/02/06 05:18:57;;;;;;;;;;;;;;;25.88;39.55;95751.50;5023728;28;9181;-63
2023/02/06 05:21:24;;;;;;;;;;;;;;;25.86;39.55;95753.22;5009551;28;9022;-64
2023/02/06 05:23:59;;;;;;;;;;;;;;;25.85;39.81;95752.47;5007437;28;9619;-63
2023/02/06 05:26:26;;;;;;;;;;;;;;;25.88;39.30;95756.25;5019172;28;6935;-63
2023/02/06 05:28:56;;;;;;;;;;;;;;;25.83;39.25;95752.19;5015101;28;7464;-63
2023/02/06 05:31:22;;;;;;;;;;;;;;;25.87;39.35;95751.97;5024797;28;8682;-63
2023/02/06 05:33:50;;;;;;;;;;;;;;;25.86;39.72;95750.47;5009140;28;8761;-64
2023/02/06 05:36:21;;;;;;;;;;;;;;;25.83;39.97;95746.69;5005428;28;7057;-64
2023/02/06 05:39:00;;;;;;;;;;;;;;;25.86;40.12;95745.69;5008803;28;7836;-64
2023/02/06 05:41:26;;;;;;;;;;;;;;;25.87;39.67;95747.22;5022824;28;7350;-63
2023/02/06 05:43:56;;;;;;;;;;;;;;;25.89;39.54;95742.00;5008351;28;9047;-64
2023/02/06 05:46:28;;;;;;;;;;;;;;;25.94;39.30;95741.31;5021301;28;9421;-64
2023/02/06 05:48:57;;;;;;;;;;;;;;;25.91;39.80;95739.50;5010594;28;7059;-64
2023/02/06 05:51:26;;;;;;;;;;;;;;;25.96;40.39;95733.31;5016304;28;7032;-64
2023/02/06 05:53:53;;;;;;;;;;;;;;;25.97;39.84;95739.56;5008126;28;7116;-64
2023/02/06 05:56:19;;;;;;;;;;;;;;;25.96;40.42;95747.09;5006984;28;7022;-64
2023/02/06 05:58:46;;;;;;;;;;;;;;;25.93;40.63;95739.78;5018626;28;8277;-64
2023/02/06 06:01:14;;;;;;;;;;;;;;;25.93;40.72;95734.28;5010916;28;7273;-64
2023/02/06 06:03:42;;;;;;;;;;;;;;;25.90;40.19;95726.97;5009588;28;7061;-65
2023/02/06 06:06:10;;;;;;;;;;;;;;;25.95;40.05;95726.28;5003913;28;8710;-64
2023/02/06 06:08:55;;;;;;;;;;;;;;;25.97;40.63;95723.03;5014406;28;7202;-64
2023/02/06 06:11:29;;;;;;;;;;;;;;;25.97;40.25;95714.75;4999615;28;7266;-63
2023/02/06 06:13:55;;;;;;;;;;;;;;;25.97;39.87;95728.53;5014746;28;7231;-63
2023/02/06 06:16:32;;;;;;;;;;;;;;;26.00;39.34;95722.84;5023874;28;8364;-63
2023/02/06 06:19:00;;;;;;;;;;;;;;;25.99;38.76;95724.06;5006485;28;7075;-64
2023/02/06 06:21:29;;;;;;;;;;;;;;;25.97;39.79;95732.06;4998783;28;7824;-64
2023/02/06 06:24:05;;;;;;;;;;;;;;;25.97;39.40;95740.34;5008587;28;7405;-64
2023/02/06 06:26:38;;;;;;;;;;;;;;;25.97;39.74;95734.81;5009062;28;8876;-64
2023/02/06 06:29:08;;;;;;;;;;;;;;;25.99;39.80;95731.59;5004991;28;7217;-64
2023/02/06 06:31:36;;;;;;;;;;;;;;;26.05;39.24;95729.69;5003800;28;8771;-64
2023/02/06 06:34:01;;;;;;;;;;;;;;;26.07;39.04;95727.97;4999241;28;9571;-64
2023/02/06 06:36:27;;;;;;;;;;;;;;;26.05;39.06;95733.19;5008513;28;7249;-64
2023/02/06 06:39:00;;;;;;;;;;;;;;;26.00;38.49;95728.34;5009656;28;8725;-64
2023/02/06 06:41:27;;;;;;;;;;;;;;;25.96;39.09;95730.56;5010379;28;7131;-64
2023/02/06 06:44:26;;;;;;;;;;;;;;;26.03;39.12;95732.91;5004118;28;7088;-64
2023/02/06 06:46:56;;;;;;;;;;;;;;;26.02;39.10;95742.41;4947586;28;7267;-63
2023/02/06 06:49:24;;;;;;;;;;;;;;;26.02;39.13;95730.63;4950294;28;7711;-63
2023/02/06 06:51:58;;;;;;;;;;;;;;;26.00;39.00;95722.09;4950456;28;9091;-64
2023/02/06 06:55:03;;;;;;;;;;;;;;;25.97;39.52;95721.03;4935580;28;8679;-64
2023/02/06 06:57:32;;;;;;;;;;;;;;;25.97;39.84;95723.81;4928288;28;8124;-64
2023/02/06 07:00:11;;;;;;;;;;;;;;;25.97;39.20;95714.75;4948406;28;7021;-64
2023/02/06 07:02:48;;;;;;;;;;;;;;;25.94;39.46;95713.00;4949102;28;9064;-65
2023/02/06 07:05:26;;;;;;;;;;;;;;;25.94;39.76;95716.50;4931444;28;9044;-64
2023/02/06 07:07:55;;;;;;;;;;;;;;;25.93;39.43;95712.22;4948211;28;9172;-64
2023/02/06 07:10:36;;;;;;;;;;;;;;;25.92;39.05;95713.47;4926672;28;6885;-64
2023/02/06 07:13:23;;;;;;;;;;;;;;;25.93;40.02;95709.47;4951094;28;7215;-64
2023/02/06 07:15:58;;;;;;;;;;;;;;;25.92;39.39;95720.97;4950177;28;9030;-64
2023/02/06 07:18:24;;;;;;;;;;;;;;;25.94;39.28;95729.53;4926458;28;7105;-64
2023/02/06 07:20:50;;;;;;;;;;;;;;;25.93;39.52;95734.28;4949207;28;7124;-64
2023/02/06 07:23:27;;;;;;;;;;;;;;;25.95;39.73;95731.03;5004523;28;9045;-64
2023/02/06 07:26:01;;;;;;;;;;;;;;;25.93;39.78;95734.28;5003102;28;7031;-64
2023/02/06 07:28:32;;;;;;;;;;;;;;;25.93;39.27;95737.03;5003377;28;7261;-64
2023/02/06 07:31:01;;;;;;;;;;;;;;;25.91;39.85;95739.50;5003706;28;9062;-65
2023/02/06 07:33:27;;;;;;;;;;;;;;;25.92;39.39;95735.53;5016266;28;9775;-65
2023/02/06 07:36:13;;;;;;;;;;;;;;;25.93;39.64;95728.00;5016341;28;9470;-65
2023/02/06 07:38:49;;;;;;;;;;;;;;;25.91;39.62;95736.75;4998230;28;9159;-64
2023/02/06 07:41:16;;;;;;;;;;;;;;;25.93;39.46;95739.03;5007936;28;8743;-65
2023/02/06 07:43:55;;;;;;;;;;;;;;;25.90;40.03;95740.75;5021591;28;7255;-64
2023/02/06 07:46:34;;;;;;;;;;;;;;;25.91;39.61;95739.50;5003624;28;8182;-64
2023/02/06 07:49:33;;;;;;;;;;;;;;;25.91;39.29;95745.03;5008601;28;9373;-64
2023/02/06 07:52:01;;;;;;;;;;;;;;;25.89;39.79;95742.00;4908368;29;8962;-64
2023/02/06 07:54:38;;;;;;;;;;;;;;;25.90;40.13;95746.25;4907270;29;7157;-64
2023/02/06 07:57:12;;;;;;;;;;;;;;;25.88;39.43;95742.47;4917931;29;9049;-64
2023/02/06 07:59:38;;;;;;;;;;;;;;;25.90;40.08;95745.50;4911007;29;7328;-64
2023/02/06 08:02:05;;;;;;;;;;;;;;;25.91;39.83;95752.53;4902209;29;9092;-65
2023/02/06 08:04:34;;;;;;;;;;;;;;;25.90;39.69;95734.50;4920022;29;10116;-65
2023/02/06 08:07:04;;;;;;;;;;;;;;;25.89;39.87;95738.47;4910013;29;7041;-65
2023/02/06 08:09:32;;;;;;;;;;;;;;;25.85;39.56;95727.66;4916566;29;9188;-64
2023/02/06 08:12:07;;;;;;;;;;;;;;;25.90;39.36;95746.25;4916998;29;9768;-65
2023/02/06 08:14:33;;;;;;;;;;;;;;;25.89;39.86;95738.47;4904784;29;7027;-65
2023/02/06 08:16:59;;;;;;;;;;;;;;;25.90;39.61;95748.28;4911248;29;9382;-65
2023/02/06 08:19:25;;;;;;;;;;;;;;;25.91;40.00;95752.53;4909443;29;9199;-65
2023/02/06 08:21:53;;;;;;;;;;;;;;;25.90;39.78;95751.03;4905024;29;7250;-65
2023/02/06 08:24:19;;;;;;;;;;;;;;;25.90;40.36;95746.25;4907348;29;8923;-64
2023/02/06 08:26:45;;;;;;;;;;;;;;;25.90;39.45;95751.75;4914930;28;9094;-65
2023/02/06 08:29:14;;;;;;;;;;;;;;;25.87;40.18;95741.72;4996979;28;7194;-65
2023/02/06 08:31:41;;;;;;;;;;;;;;;25.93;39.27;95747.28;5006542;28;8965;-65
2023/02/06 08:34:11;;;;;;;;;;;;;;;25.93;39.83;95737.03;5006708;28;7059;-65
2023/02/06 08:36:40;;;;;;;;;;;;;;;25.93;39.61;95750.81;5005677;28;7214;-65
2023/02/06 08:39:09;;;;;;;;;;;;;;;25.92;39.25;95746.56;5004387;28;7055;-64
2023/02/06 08:41:39;;;;;;;;;;;;;;;25.90;40.12;95740.75;5002186;28;7281;-65
2023/02/06 08:44:14;;;;;;;;;;;;;;;25.92;39.50;95743.81;5000627;28;7135;-65
2023/02/06 08:46:45;;;;;;;;;;;;;;;25.93;39.46;95748.06;5008914;28;8182;-65
2023/02/06 08:49:18;;;;;;;;;;;;;;;25.93;39.36;95750.06;4999424;28;8933;-65
2023/02/06 08:51:45;;;;;;;;;;;;;;;25.92;39.89;95743.03;4998934;28;7292;-65
2023/02/06 08:54:17;;;;;;;;;;;;;;;25.88;39.51;95737.72;5008688;28;9073;-65
2023/02/06 08:56:43;;;;;;;;;;;;;;;25.93;39.93;95736.25;5016185;28;9139;-65
2023/02/06 08:59:16;;;;;;;;;;;;;;;25.92;40.03;95749.31;4997977;28;7032;-65
2023/02/06 09:01:58;;;;;;;;;;;;;;;25.92;39.57;95748.53;5010278;28;9221;-65
2023/02/06 09:04:24;;;;;;;;;;;;;;;25.93;40.12;95748.06;5013445;28;9138;-65
2023/02/06 09:06:57;;;;;;;;;;;;;;;25.91;39.96;95742.28;5019459;28;7008;-65
2023/02/06 09:09:23;;;;;;;;;;;;;;;25.93;40.00;95750.81;5010803;28;7049;-65
2023/02/06 09:12:02;;;;;;;;;;;;;;;25.86;39.95;95740.19;5008118;28;9105;-65
2023/02/06 09:14:39;;;;;;;;;;;;;;;25.91;39.47;95747.00;5006968;28;7438;-65
2023/02/06 09:17:16;;;;;;;;;;;;;;;25.91;40.12;95750.53;5003314;28;7270;-65
2023/02/06 09:20:21;;;;;;;;;;;;;;;25.94;39.59;95760.63;5002993;28;9018;-65
2023/02/06 09:23:06;;;;;;;;;;;;;;;25.91;39.92;95758.03;5018117;28;7456;-65
2023/02/06 09:25:32;;;;;;;;;;;;;;;25.94;40.08;95768.88;5023403;28;9100;-66
2023/02/06 09:28:15;;;;;;;;;;;;;;;25.93;39.80;95764.59;5021321;28;7270;-65
2023/02/06 09:30:41;;;;;;;;;;;;;;;25.94;39.39;95757.09;5010968;28;9133;-66
2023/02/06 09:33:06;;;;;;;;;;;;;;;25.92;39.80;95757.59;5004007;28;7262;-65
2023/02/06 09:35:32;;;;;;;;;;;;;;;25.93;39.43;95753.56;5001262;28;8796;-66
2023/02/06 09:38:07;;;;;;;;;;;;;;;25.93;40.30;95745.31;5017156;28;7016;-66
2023/02/06 09:40:57;;;;;;;;;;;;;;;25.93;40.14;95741.78;5019059;28;7094;-66
2023/02/06 09:43:33;;;;;;;;;;;;;;;25.92;39.72;95737.53;5005193;28;7218;-65
2023/02/06 09:46:14;;;;;;;;;;;;;;;25.90;39.40;95746.25;5011914;28;7204;-65
2023/02/06 09:48:43;;;;;;;;;;;;;;;25.91;39.42;95742.28;5011761;28;9318;-65
2023/02/06 09:51:38;;;;;;;;;;;;;;;25.91;40.03;95745.03;4995883;28;7058;-66
2023/02/06 09:54:39;;;;;;;;;;;;;;;25.90;39.99;95751.75;5019503;28;7511;-65
2023/02/06 09:57:47;;;;;;;;;;;;;;;25.92;39.60;95756.81;5013368;28;7214;-65
2023/02/06 10:00:24;;;;;;;;;;;;;;;25.93;39.29;95750.06;5013904;28;9416;-65
2023/02/06 10:03:14;;;;;;;;;;;;;;;25.92;40.01;95749.31;4999525;28;7309;-65
2023/02/06 10:06:27;;;;;;;;;;;;;;;25.92;40.12;95749.31;5007857;28;7081;-65
2023/02/06 10:09:45;;;;;;;;;;;;;;;25.93;40.17;95750.81;5003458;28;7244;-65
2023/02/06 10:12:44;;;;;;;;;;;;;;;25.93;39.24;95748.06;5003561;28;7045;-66
2023/02/06 10:15:11;;;;;;;;;;;;;;;25.92;39.39;95749.31;4957385;28;7103;-65
2023/02/06 10:18:20;;;;;;;;;;;;;;;25.90;39.22;95740.75;4971535;28;9489;-66
2023/02/06 10:20:51;;;;;;;;;;;;;;;25.94;39.34;95741.31;4875627;29;7049;-65
2023/02/06 10:23:54;;;;;;;;;;;;;;;25.93;39.24;95731.50;4877003;29;9073;-65
2023/02/06 10:26:23;;;;;;;;;;;;;;;25.92;39.35;95732.78;4861293;29;7040;-65
2023/02/06 10:29:02;;;;;;;;;;;;;;;25.93;38.91;95728.75;4875372;29;9267;-65
2023/02/06 10:31:46;;;;;;;;;;;;;;;25.93;39.09;95734.28;4873621;29;7290;-65
2023/02/06 10:34:28;;;;;;;;;;;;;;;25.92;40.09;95718.22;4871674;29;7283;-65
2023/02/06 10:37:20;;;;;;;;;;;;;;;25.94;39.29;95726.78;4870130;29;7295;-65
2023/02/06 10:40:26;;;;;;;;;;;;;;;25.95;40.24;95722.75;4871756;29;8291;-65
2023/02/06 10:43:10;;;;;;;;;;;;;;;25.94;39.81;95711.00;4876093;29;7051;-65
2023/02/06 10:46:01;;;;;;;;;;;;;;;25.95;38.91;95712.50;4860443;29;8846;-65
2023/02/06 10:48:51;;;;;;;;;;;;;;;25.97;39.04;95707.25;4870101;29;7233;-65
2023/02/06 10:51:36;;;;;;;;;;;;;;;25.98;38.87;95695.00;4876576;29;8785;-65
2023/02/06 10:54:15;;;;;;;;;;;;;;;25.97;39.17;95684.44;4927107;29;7140;-65
2023/02/06 10:56:46;;;;;;;;;;;;;;;25.96;39.06;95683.69;4980926;28;9106;-65
2023/02/06 10:59:36;;;;;;;;;;;;;;;25.95;39.46;95673.91;5017871;28;10055;-65
2023/02/06 11:02:41;;;;;;;;;;;;;;;25.97;39.77;95667.91;5020854;28;7114;-65
2023/02/06 11:05:20;;;;;;;;;;;;;;;25.95;39.66;95668.38;4931536;29;9108;-65
2023/02/06 11:08:08;;;;;;;;;;;;;;;25.97;39.48;95671.41;4928370;29;7286;-65
2023/02/06 11:11:18;;;;;;;;;;;;;;;25.99;39.73;95673.72;4931802;29;7019;-65
2023/02/06 11:14:19;;;;;;;;;;;;;;;25.98;39.42;95661.91;4927344;29;6991;-65
2023/02/06 11:17:14;;;;;;;;;;;;;;;25.99;39.74;95655.16;4927993;29;7117;-65
2023/02/06 11:20:00;;;;;;;;;;;;;;;25.99;39.38;95657.16;4931138;29;9341;-65
2023/02/06 11:22:36;;;;;;;;;;;;;;;25.94;38.94;95653.09;4931210;29;7042;-65
2023/02/06 11:25:16;;;;;;;;;;;;;;;25.96;39.44;95642.34;4915086;29;7483;-65
2023/02/06 11:28:14;;;;;;;;;;;;;;;25.99;39.78;95641.38;4932165;29;9300;-65
2023/02/06 11:31:06;;;;;;;;;;;;;;;26.01;38.56;95640.91;4930853;29;9464;-65
2023/02/06 11:33:44;;;;;;;;;;;;;;;25.96;39.21;95636.84;4915682;29;9012;-65
2023/02/06 11:40:21;;;;;;;;;;;;;;;25.99;39.59;95633.09;4949218;28;7197;-65
2023/02/06 11:42:52;;;;;;;;;;;;;;;25.99;39.71;95624.09;4950137;28;9020;-65
2023/02/06 11:46:03;;;;;;;;;;;;;;;25.99;39.56;95630.34;4951192;28;8973;-65
2023/02/06 11:48:59;;;;;;;;;;;;;;;25.99;39.54;95632.34;4935318;29;8866;-65
2023/02/06 11:51:51;;;;;;;;;;;;;;;26.04;38.72;95632.41;4874662;29;7183;-65
2023/02/06 11:54:34;;;;;;;;;;;;;;;26.07;39.53;95622.41;4873459;29;7680;-65
2023/02/06 11:57:37;;;;;;;;;;;;;;;26.11;39.13;95634.78;4850596;29;8810;-65
2023/02/06 12:00:24;;;;;;;;;;;;;;;26.15;38.99;95629.03;4852479;29;7070;-65
2023/02/06 12:02:54;;;;;;;;;;;;;;;26.25;38.90;95621.38;4873974;29;7178;-65
2023/02/06 12:05:33;;;;;;;;;;;;;;;26.25;39.42;95618.63;4852543;29;7250;-65
2023/02/06 12:08:20;;;;;;;;;;;;;;;26.29;38.72;95621.94;4871722;29;9170;-65
2023/02/06 12:11:15;;;;;;;;;;;;;;;26.30;39.37;95623.44;4856272;29;9053;-65
2023/02/06 12:13:48;;;;;;;;;;;;;;;26.32;38.69;95621.69;4855349;29;9332;-65
2023/02/06 12:16:17;;;;;;;;;;;;;;;26.36;39.27;95616.00;4897669;29;9063;-65
2023/02/06 12:18:49;;;;;;;;;;;;;;;26.38;39.57;95619.00;4919044;29;7299;-65
2023/02/06 12:21:45;;;;;;;;;;;;;;;26.37;39.34;95620.25;4924384;29;8486;-65
2023/02/06 12:24:33;;;;;;;;;;;;;;;26.37;39.05;95623.00;4926550;29;9072;-64
2023/02/06 12:27:13;;;;;;;;;;;;;;;26.35;39.68;95617.22;4915843;28;7228;-65
2023/02/06 12:30:06;;;;;;;;;;;;;;;26.37;39.14;95609.97;5006215;28;7061;-65
2023/02/06 12:32:40;;;;;;;;;;;;;;;26.40;39.07;95605.50;5020002;28;7159;-65
2023/02/06 12:35:16;;;;;;;;;;;;;;;26.38;38.83;95600.44;5021804;28;8064;-65
2023/02/06 12:38:12;;;;;;;;;;;;;;;26.39;38.78;95592.94;5003788;28;7055;-65
2023/02/06 12:40:47;;;;;;;;;;;;;;;26.41;38.63;95593.19;5007969;28;7223;-65
2023/02/06 12:43:17;;;;;;;;;;;;;;;26.44;38.74;95595.00;5004299;28;7318;-65
2023/02/06 12:45:58;;;;;;;;;;;;;;;26.42;39.01;95587.22;5008317;28;7292;-65
2023/02/06 12:48:35;;;;;;;;;;;;;;;26.43;39.18;95588.72;5003359;28;7888;-65
2023/02/06 12:51:14;;;;;;;;;;;;;;;26.43;38.78;95577.69;5002249;28;7263;-65
2023/02/06 12:53:47;;;;;;;;;;;;;;;26.42;38.45;95584.44;5010674;28;9187;-65
2023/02/06 12:56:28;;;;;;;;;;;;;;;26.39;39.13;95587.41;5011017;28;7312;-65
2023/02/06 12:59:29;;;;;;;;;;;;;;;26.39;38.70;95588.19;5008703;28;7273;-65
2023/02/06 13:02:17;;;;;;;;;;;;;;;26.41;38.77;95584.91;5020444;28;7618;-66
2023/02/06 13:04:45;;;;;;;;;;;;;;;26.43;38.51;95579.66;5006560;28;7044;-65
2023/02/06 13:07:16;;;;;;;;;;;;;;;26.42;38.58;95561.63;5013521;28;6998;-65
2023/02/06 13:09:51;;;;;;;;;;;;;;;26.43;38.90;95566.63;5003309;28;7065;-65
2023/02/06 13:12:27;;;;;;;;;;;;;;;26.40;38.75;95564.13;5009044;28;9538;-65
2023/02/06 13:14:56;;;;;;;;;;;;;;;26.40;38.37;95561.34;5010728;28;7185;-64
2023/02/06 13:17:33;;;;;;;;;;;;;;;26.39;39.15;95559.81;5008606;28;9044;-65
2023/02/06 13:20:05;;;;;;;;;;;;;;;26.37;39.13;95562.31;5012653;28;7105;-65
2023/02/06 13:22:53;;;;;;;;;;;;;;;26.35;38.34;95557.31;5001831;28;6981;-65
2023/02/06 13:25:29;;;;;;;;;;;;;;;26.34;39.23;95553.00;5006966;28;8632;-65
2023/02/06 13:28:28;;;;;;;;;;;;;;;26.34;38.62;95550.25;5012630;28;7719;-65
2023/02/06 13:34:42;;;;;;;;;;;;;;;26.34;38.78;95560.56;4983520;28;8862;-65
2023/02/06 13:37:41;;;;;;;;;;;;;;;26.29;39.30;95573.03;4986625;28;7026;-65
2023/02/06 13:40:30;;;;;;;;;;;;;;;26.27;38.59;95567.25;4991422;28;9137;-65
2023/02/06 13:43:27;;;;;;;;;;;;;;;26.27;38.54;95558.22;4972793;28;8385;-65
2023/02/06 13:46:30;;;;;;;;;;;;;;;26.28;38.44;95556.97;4981896;28;7670;-65
2023/02/06 13:53:15;;;;;;;;;;;;;;;26.23;38.79;95558.44;4993278;28;7160;-65
2023/02/06 13:56:07;;;;;;;;;;;;;;;26.22;39.02;95573.47;4882896;29;7231;-65
2023/02/06 13:58:44;;;;;;;;;;;;;;;26.21;38.52;95565.69;4893610;29;7063;-65
2023/02/06 14:01:55;;;;;;;;;;;;;;;26.20;39.02;95559.41;4894231;29;8293;-65
2023/02/06 14:04:41;;;;;;;;;;;;;;;26.17;38.59;95555.63;4821931;29;7266;-65